Time;durP1;ratioP1;P1;durP2;ratioP2;P2;SDS_P1;SDS_P2;PMS_P1;PMS_P2;Temp;Humidity;BMP_temperature;BMP_pressure;BME280_temperature;BME280_humidity;BME280_pressure;Samples;Min_cycle;Max_cycle;Signal;HPM_P1;HPM_P2
2022/09/07 04:01:17;;;;;;;2.73;2.63;;;16.10;99.90;;;;;;5575569;23;20489;-71
2022/09/07 04:03:45;;;;;;;2.47;2.37;;;16.10;99.90;;;;;;4957949;28;20486;-72
2022/09/07 04:06:12;;;;;;;2.97;2.87;;;16.10;99.90;;;;;;4963557;28;20489;-71
2022/09/07 04:08:40;;;;;;;2.10;2.00;;;16.10;99.90;;;;;;4952541;28;20468;-72
2022/09/07 04:11:10;;;;;;;2.20;2.20;;;16.20;99.90;;;;;;4952836;28;20495;-71
2022/09/07 04:13:37;;;;;;;2.57;2.40;;;16.10;99.90;;;;;;4956318;28;20472;-71
2022/09/07 04:16:11;;;;;;;2.83;2.73;;;16.20;99.90;;;;;;4963562;28;20468;-72
2022/09/07 04:18:39;;;;;;;3.97;2.73;;;16.10;99.90;;;;;;4966454;28;20959;-72
2022/09/07 04:21:06;;;;;;;2.33;2.23;;;16.10;99.90;;;;;;4960407;28;20857;-72
2022/09/07 04:23:33;;;;;;;2.60;2.50;;;16.10;99.90;;;;;;4955590;28;20472;-72
2022/09/07 04:26:00;;;;;;;2.30;2.30;;;16.10;99.90;;;;;;4956364;28;20890;-72
2022/09/07 04:28:26;;;;;;;2.03;2.00;;;16.10;99.90;;;;;;4956197;28;20471;-72
2022/09/07 04:30:53;;;;;;;2.40;2.30;;;16.20;99.90;;;;;;4956924;28;21008;-71
2022/09/07 04:33:20;;;;;;;2.20;2.20;;;16.10;99.90;;;;;;4964323;28;20953;-72
2022/09/07 04:35:48;;;;;;;2.17;2.07;;;16.10;99.90;;;;;;4967303;28;20558;-72
2022/09/07 04:38:17;;;;;;;1.57;1.57;;;16.20;99.90;;;;;;4959131;28;20472;-72
2022/09/07 04:40:44;;;;;;;2.17;2.17;;;16.20;99.90;;;;;;4955955;28;20496;-72
2022/09/07 04:43:11;;;;;;;2.10;2.00;;;16.20;99.90;;;;;;4955938;28;20475;-72
2022/09/07 04:45:39;;;;;;;2.27;2.17;;;16.20;99.90;;;;;;4956040;28;20982;-72
2022/09/07 04:48:06;;;;;;;2.20;2.10;;;16.20;99.90;;;;;;4960520;28;20469;-72
2022/09/07 04:50:32;;;;;;;1.50;1.40;;;16.20;99.90;;;;;;4965882;28;20482;-73
2022/09/07 04:53:00;;;;;;;3.90;2.00;;;16.30;99.90;;;;;;4974774;28;20481;-71
2022/09/07 04:55:27;;;;;;;1.50;1.50;;;16.30;99.90;;;;;;4975155;28;20810;-72
2022/09/07 04:57:54;;;;;;;1.90;1.80;;;16.30;99.90;;;;;;4975032;28;20957;-73
2022/09/07 05:00:21;;;;;;;1.27;1.27;;;16.30;99.90;;;;;;4975322;28;20503;-72
2022/09/07 05:02:47;;;;;;;2.00;1.90;;;16.30;99.90;;;;;;4974970;28;20471;-73
2022/09/07 05:05:14;;;;;;;1.53;1.43;;;16.30;99.90;;;;;;4962420;28;20493;-73
2022/09/07 05:07:41;;;;;;;2.13;2.07;;;16.30;99.90;;;;;;4966944;28;20470;-72
2022/09/07 05:10:11;;;;;;;1.50;1.50;;;16.30;99.90;;;;;;4974524;28;20952;-71
2022/09/07 05:12:38;;;;;;;10.80;2.20;;;16.40;99.90;;;;;;4974843;28;20477;-72
2022/09/07 05:15:06;;;;;;;2.23;2.13;;;16.40;99.90;;;;;;4966631;28;20561;-71
2022/09/07 05:17:33;;;;;;;1.80;1.70;;;16.40;99.90;;;;;;4965628;28;20978;-72
2022/09/07 05:19:59;;;;;;;1.87;1.87;;;16.40;99.90;;;;;;4968606;28;20475;-72
2022/09/07 05:22:26;;;;;;;2.63;2.53;;;16.40;99.90;;;;;;4964221;28;20484;-72
2022/09/07 05:24:53;;;;;;;2.20;2.00;;;16.40;99.90;;;;;;4973751;28;20484;-73
2022/09/07 05:27:21;;;;;;;3.30;2.30;;;16.30;99.90;;;;;;4974884;28;20471;-72
2022/09/07 05:29:47;;;;;;;1.93;1.90;;;16.30;99.90;;;;;;4974936;28;20467;-72
2022/09/07 05:32:14;;;;;;;2.43;2.33;;;16.30;99.90;;;;;;4974249;28;20848;-73
2022/09/07 05:34:41;;;;;;;2.10;2.10;;;16.30;99.90;;;;;;4966733;28;20968;-73
2022/09/07 05:37:08;;;;;;;5.50;1.90;;;16.30;99.90;;;;;;4966050;28;20475;-72
2022/09/07 05:39:35;;;;;;;4.17;2.30;;;16.30;99.90;;;;;;4955460;28;20468;-72
2022/09/07 05:42:01;;;;;;;2.30;2.30;;;16.30;99.90;;;;;;4955503;28;20483;-73
2022/09/07 05:44:30;;;;;;;2.00;1.90;;;16.30;99.90;;;;;;4954732;28;20470;-72
2022/09/07 05:46:57;;;;;;;2.10;2.00;;;16.30;99.90;;;;;;4955175;28;20495;-72
2022/09/07 05:49:24;;;;;;;1.97;1.97;;;16.40;99.90;;;;;;4961045;28;20478;-72
2022/09/07 05:51:51;;;;;;;2.20;2.20;;;16.40;99.90;;;;;;4967313;28;20836;-74
2022/09/07 05:54:18;;;;;;;2.20;2.20;;;16.40;99.90;;;;;;4964269;28;20465;-73
2022/09/07 05:56:45;;;;;;;2.10;2.10;;;16.40;99.90;;;;;;4974706;28;20459;-73
2022/09/07 05:59:12;;;;;;;2.50;2.40;;;16.40;99.90;;;;;;4974083;28;20475;-74
2022/09/07 06:01:40;;;;;;;2.87;2.50;;;16.50;99.90;;;;;;4973935;28;20866;-74
2022/09/07 06:04:07;;;;;;;3.33;2.60;;;16.50;99.90;;;;;;4973946;28;20469;-74
2022/09/07 06:06:37;;;;;;;2.47;2.47;;;16.50;99.90;;;;;;4962858;28;20489;-74
2022/09/07 06:09:04;;;;;;;5.07;3.10;;;16.50;99.90;;;;;;4969129;28;20473;-73
2022/09/07 06:11:30;;;;;;;2.93;2.73;;;16.50;99.90;;;;;;4974035;28;20489;-73
2022/09/07 06:13:57;;;;;;;10.00;3.10;;;16.50;99.90;;;;;;4973515;28;20475;-73
2022/09/07 06:16:24;;;;;;;2.83;2.73;;;16.50;99.90;;;;;;4966036;28;20566;-73
2022/09/07 06:18:52;;;;;;;2.70;2.60;;;16.50;99.90;;;;;;4967538;28;20467;-74
2022/09/07 06:21:20;;;;;;;4.53;2.73;;;16.50;99.90;;;;;;4973505;28;21177;-73
2022/09/07 06:23:48;;;;;;;3.77;3.37;;;16.50;99.90;;;;;;4973217;28;20468;-73
2022/09/07 06:26:16;;;;;;;1.90;1.90;;;16.50;99.90;;;;;;4973848;28;20503;-74
2022/09/07 06:28:44;;;;;;;2.83;2.77;;;16.50;99.90;;;;;;4973348;28;20472;-74
2022/09/07 06:31:12;;;;;;;3.63;3.13;;;16.50;99.90;;;;;;4964895;28;20523;-76
2022/09/07 06:33:40;;;;;;;2.60;2.50;;;16.50;99.90;;;;;;4953654;28;20524;-74
2022/09/07 06:36:11;;;;;;;2.33;2.23;;;16.50;99.90;;;;;;4953524;28;20511;-73
2022/09/07 06:38:39;;;;;;;2.37;2.27;;;16.50;99.90;;;;;;4953768;28;20472;-73
2022/09/07 06:41:07;;;;;;;2.50;2.40;;;16.40;99.90;;;;;;4953974;28;20492;-74
2022/09/07 06:43:35;;;;;;;3.00;2.90;;;16.40;99.90;;;;;;4953877;28;20465;-73
2022/09/07 06:46:01;;;;;;;2.40;2.40;;;16.40;99.90;;;;;;4960452;28;20493;-73
2022/09/07 06:48:28;;;;;;;3.47;3.17;;;16.30;99.90;;;;;;4957329;28;20464;-73
2022/09/07 06:50:56;;;;;;;3.63;3.33;;;16.30;99.90;;;;;;4972427;28;21004;-74
2022/09/07 06:53:25;;;;;;;3.00;2.90;;;16.20;99.90;;;;;;4972507;28;20474;-73
2022/09/07 06:55:52;;;;;;;5.00;3.10;;;16.10;99.90;;;;;;4973283;28;20461;-73
2022/09/07 06:58:19;;;;;;;3.60;3.40;;;16.00;99.90;;;;;;4973045;28;20470;-73
2022/09/07 07:00:45;;;;;;;3.00;2.80;;;16.00;99.90;;;;;;4972701;28;21007;-73
2022/09/07 07:03:12;;;;;;;3.23;3.03;;;16.00;99.90;;;;;;4971279;28;20466;-74
2022/09/07 07:05:39;;;;;;;3.30;3.17;;;15.90;99.90;;;;;;4964735;28;21038;-73
2022/09/07 07:08:06;;;;;;;3.53;3.23;;;15.90;99.90;;;;;;4958515;28;20467;-73
2022/09/07 07:10:38;;;;;;;3.17;3.07;;;15.80;99.90;;;;;;4957054;28;20823;-74
2022/09/07 07:13:05;;;;;;;3.20;3.00;;;15.80;99.90;;;;;;4972469;28;20471;-73
2022/09/07 07:15:32;;;;;;;4.00;3.80;;;15.80;99.90;;;;;;4972017;28;20460;-74
2022/09/07 07:17:58;;;;;;;5.07;4.43;;;15.70;99.90;;;;;;4983168;28;20481;-73
2022/09/07 07:20:25;;;;;;;4.80;4.37;;;15.50;99.90;;;;;;4974437;28;20460;-73
2022/09/07 07:22:52;;;;;;;3.93;3.63;;;15.50;99.90;;;;;;4986270;28;20462;-73
2022/09/07 07:25:20;;;;;;;4.10;3.90;;;15.40;99.90;;;;;;4991591;28;20488;-73
2022/09/07 07:27:48;;;;;;;4.20;3.90;;;15.20;99.90;;;;;;4990205;28;20462;-73
2022/09/07 07:30:16;;;;;;;3.63;3.47;;;15.10;99.90;;;;;;4991398;28;20471;-73
2022/09/07 07:32:44;;;;;;;4.20;4.00;;;15.10;99.90;;;;;;4986356;28;20460;-73
2022/09/07 07:35:12;;;;;;;4.57;4.27;;;15.10;99.90;;;;;;4976564;28;20471;-73
2022/09/07 07:37:40;;;;;;;4.27;3.97;;;15.20;99.90;;;;;;4968657;28;20463;-73
2022/09/07 07:40:09;;;;;;;4.63;4.27;;;15.20;99.90;;;;;;4968927;28;20470;-73
2022/09/07 07:42:37;;;;;;;3.40;3.20;;;15.20;99.90;;;;;;4971060;28;20480;-73
2022/09/07 07:45:07;;;;;;;3.33;3.23;;;15.20;99.90;;;;;;4969927;28;20467;-73
2022/09/07 07:47:34;;;;;;;4.50;4.20;;;15.20;99.90;;;;;;4971730;28;20463;-73
2022/09/07 07:50:01;;;;;;;4.53;4.33;;;15.20;99.90;;;;;;4996033;28;20478;-73
2022/09/07 07:52:32;;;;;;;2.30;2.20;;;15.10;99.90;;;;;;4991564;28;20960;-74
2022/09/07 07:54:59;;;;;;;4.10;3.80;;;15.10;99.90;;;;;;4992314;28;20487;-73
2022/09/07 07:57:26;;;;;;;3.60;3.40;;;15.10;99.90;;;;;;4989421;28;20530;-73
2022/09/07 07:59:52;;;;;;;3.87;3.77;;;15.10;99.90;;;;;;4990943;28;20470;-73
2022/09/07 08:02:21;;;;;;;3.90;3.70;;;15.10;99.90;;;;;;4993627;28;20478;-75
2022/09/07 08:04:47;;;;;;;4.00;3.70;;;15.10;99.90;;;;;;4983171;28;20458;-74
2022/09/07 08:07:15;;;;;;;2.83;2.73;;;15.00;99.90;;;;;;4979336;28;20487;-74
2022/09/07 08:09:43;;;;;;;4.40;4.20;;;15.00;99.90;;;;;;4975979;28;20548;-74
2022/09/07 08:12:12;;;;;;;7.63;4.00;;;14.90;99.90;;;;;;4978302;28;20489;-74
2022/09/07 08:14:40;;;;;;;4.07;3.83;;;14.90;99.90;;;;;;4981110;28;20474;-74
2022/09/07 08:17:07;;;;;;;2.87;2.77;;;14.80;99.90;;;;;;4966131;28;20472;-74
2022/09/07 08:19:35;;;;;;;3.47;3.17;;;14.80;99.90;;;;;;4969278;28;20475;-74
2022/09/07 08:22:02;;;;;;;5.10;3.67;;;14.80;99.90;;;;;;4963438;28;20504;-74
2022/09/07 08:24:30;;;;;;;3.60;3.40;;;14.80;99.90;;;;;;4966510;28;20473;-74
2022/09/07 08:26:56;;;;;;;3.90;3.70;;;14.70;99.90;;;;;;4972973;28;20494;-75
2022/09/07 08:29:23;;;;;;;8.83;4.20;;;14.80;99.90;;;;;;4965049;28;20480;-74
2022/09/07 08:31:50;;;;;;;2.87;2.77;;;14.80;99.90;;;;;;4967580;28;20821;-74
2022/09/07 08:34:17;;;;;;;2.77;2.70;;;14.90;99.90;;;;;;4975081;28;20466;-73
2022/09/07 08:36:45;;;;;;;3.57;3.43;;;15.00;99.90;;;;;;4991098;28;20474;-74
2022/09/07 08:39:12;;;;;;;3.10;3.00;;;15.00;99.90;;;;;;4988546;28;20462;-74
2022/09/07 08:41:52;;;;;;;4.63;4.43;;;15.10;99.90;;;;;;4972233;28;20843;-73
2022/09/07 08:44:24;;;;;;;4.40;4.20;;;15.10;99.90;;;;;;4966482;28;20572;-73
2022/09/07 08:46:56;;;;;;;3.17;3.00;;;15.20;99.90;;;;;;4961867;28;20478;-73
2022/09/07 08:49:27;;;;;;;3.43;3.33;;;15.30;99.90;;;;;;4953024;28;20537;-73
2022/09/07 08:52:00;;;;;;;3.60;3.40;;;15.40;99.90;;;;;;4952037;28;20503;-73
2022/09/07 08:54:27;;;;;;;3.63;3.53;;;15.70;99.90;;;;;;4952131;28;20480;-74
2022/09/07 08:56:57;;;;;;;4.10;3.80;;;15.90;99.90;;;;;;4953224;28;20951;-73
2022/09/07 08:59:26;;;;;;;4.53;3.50;;;16.10;99.90;;;;;;4966748;28;20485;-74
2022/09/07 09:01:53;;;;;;;4.70;4.30;;;16.30;99.90;;;;;;4975254;28;20865;-74
2022/09/07 09:04:23;;;;;;;3.10;3.00;;;16.50;99.90;;;;;;4976296;28;20569;-74
2022/09/07 09:07:05;;;;;;;3.30;3.20;;;16.70;99.90;;;;;;4975292;28;20963;-74
2022/09/07 09:09:44;;;;;;;2.83;2.73;;;16.80;99.90;;;;;;4975196;28;20472;-73
2022/09/07 09:12:18;;;;;;;4.03;3.80;;;17.00;99.90;;;;;;4968188;28;20494;-73
2022/09/07 09:14:58;;;;;;;2.90;2.80;;;17.00;99.90;;;;;;4968461;28;20841;-74
2022/09/07 09:17:30;;;;;;;3.60;3.50;;;17.20;99.90;;;;;;4975583;28;20464;-74
2022/09/07 09:20:04;;;;;;;3.47;3.23;;;17.40;99.90;;;;;;4977357;28;20471;-73
2022/09/07 09:22:32;;;;;;;3.87;3.67;;;17.50;99.90;;;;;;4978061;28;20861;-72
2022/09/07 09:25:04;;;;;;;3.30;3.20;;;17.60;99.90;;;;;;4978182;28;20544;-72
2022/09/07 09:27:31;;;;;;;3.37;3.17;;;17.60;99.90;;;;;;4967878;28;20536;-73
2022/09/07 09:29:58;;;;;;;2.70;2.60;;;17.60;99.90;;;;;;4959390;28;20465;-73
2022/09/07 09:32:38;;;;;;;3.10;3.00;;;17.70;99.90;;;;;;4958699;28;20494;-74
2022/09/07 09:35:13;;;;;;;3.40;3.20;;;17.70;99.90;;;;;;4959429;28;20490;-73
2022/09/07 09:37:42;;;;;;;3.23;3.10;;;17.70;99.90;;;;;;4958431;28;20443;-73
2022/09/07 09:40:20;;;;;;;3.23;3.07;;;17.60;99.90;;;;;;4968282;28;20466;-73
2022/09/07 09:42:47;;;;;;;3.07;2.97;;;17.60;99.90;;;;;;4966668;28;20482;-74
2022/09/07 09:45:19;;;;;;;3.43;3.33;;;17.80;99.90;;;;;;4962707;28;20489;-74
2022/09/07 09:47:49;;;;;;;3.70;3.60;;;17.90;99.90;;;;;;4967745;28;21065;-72
2022/09/07 09:50:20;;;;;;;4.57;4.17;;;18.00;99.90;;;;;;4974846;28;20569;-73
2022/09/07 09:52:49;;;;;;;3.73;3.60;;;18.20;99.90;;;;;;4973282;28;21008;-72
2022/09/07 09:55:30;;;;;;;3.67;3.47;;;18.20;99.90;;;;;;4966020;28;20470;-72
2022/09/07 09:58:00;;;;;;;4.13;3.90;;;18.30;99.90;;;;;;4955225;28;20567;-72
2022/09/07 10:00:29;;;;;;;5.47;5.17;;;18.40;99.90;;;;;;4955044;28;20475;-72
2022/09/07 10:03:02;;;;;;;4.00;3.83;;;18.40;99.90;;;;;;4954446;28;20494;-72
2022/09/07 10:05:32;;;;;;;3.10;3.00;;;18.40;99.90;;;;;;4954006;28;20494;-73
2022/09/07 10:08:01;;;;;;;3.60;3.50;;;18.50;99.90;;;;;;4960477;28;20491;-72
2022/09/07 10:10:29;;;;;;;3.60;3.50;;;18.50;99.90;;;;;;4962269;28;20532;-72
2022/09/07 10:12:56;;;;;;;5.30;4.90;;;18.60;99.90;;;;;;4960115;28;20630;-72
2022/09/07 10:15:30;;;;;;;5.23;4.87;;;18.70;99.90;;;;;;4954758;28;20821;-71
2022/09/07 10:17:59;;;;;;;4.33;4.13;;;18.80;99.90;;;;;;4954304;28;20562;-71
2022/09/07 10:20:37;;;;;;;4.93;4.60;;;18.90;99.90;;;;;;4954912;28;20494;-71
2022/09/07 10:23:18;;;;;;;4.87;4.47;;;18.90;99.90;;;;;;4962024;28;20471;-72
2022/09/07 10:25:44;;;;;;;4.10;3.90;;;18.90;99.90;;;;;;4954466;28;20578;-72
2022/09/07 10:28:18;;;;;;;4.07;3.77;;;18.90;99.90;;;;;;4954589;29;20499;-72
2022/09/07 10:30:59;;;;;;;4.80;4.40;;;18.90;99.90;;;;;;4954372;29;20491;-72
2022/09/07 10:33:34;;;;;;;4.30;4.10;;;18.90;99.90;;;;;;4954870;29;20572;-72
2022/09/07 10:36:10;;;;;;;3.07;2.87;;;19.00;99.90;;;;;;4968567;28;20845;-73
2022/09/07 10:38:44;;;;;;;3.23;3.13;;;19.00;99.90;;;;;;4965317;28;20458;-73
2022/09/07 10:41:11;;;;;;;3.60;3.50;;;19.10;99.90;;;;;;4973619;28;20496;-73
2022/09/07 10:43:43;;;;;;;3.10;3.00;;;19.10;99.90;;;;;;4970353;28;20832;-73
2022/09/07 10:46:27;;;;;;;3.93;3.53;;;19.20;99.90;;;;;;4973265;28;20464;-73
2022/09/07 10:49:08;;;;;;;3.80;3.57;;;19.40;99.90;;;;;;4973300;28;20470;-73
2022/09/07 10:51:39;;;;;;;3.67;3.47;;;19.60;99.90;;;;;;4964935;28;20510;-73
2022/09/07 10:54:14;;;;;;;3.50;3.40;;;19.80;99.90;;;;;;4972493;28;20486;-73
2022/09/07 10:56:50;;;;;;;3.27;3.17;;;19.90;99.90;;;;;;4973345;28;20473;-71
2022/09/07 10:59:31;;;;;;;4.33;4.03;;;20.00;99.90;;;;;;4973137;28;20466;-71
2022/09/07 11:02:09;;;;;;;3.60;3.40;;;20.10;99.90;;;;;;4973151;28;20492;-72
2022/09/07 11:04:50;;;;;;;4.13;3.83;;;20.10;99.90;;;;;;4967002;28;20476;-71
2022/09/07 11:07:28;;;;;;;3.10;3.00;;;20.10;99.90;;;;;;4964632;28;20483;-72
2022/09/07 11:10:01;;;;;;;3.90;3.50;;;20.20;99.90;;;;;;4972631;28;20472;-72
2022/09/07 11:12:30;;;;;;;6.20;3.40;;;20.20;99.90;;;;;;4972663;28;20498;-73
2022/09/07 11:15:14;;;;;;;3.50;3.30;;;20.20;99.90;;;;;;4972621;28;20479;-72
2022/09/07 11:17:45;;;;;;;3.87;3.77;;;20.30;99.90;;;;;;4964825;28;20466;-72
2022/09/07 11:20:21;;;;;;;2.73;2.70;;;20.30;99.90;;;;;;4957271;28;20466;-73
2022/09/07 11:22:51;;;;;;;3.27;3.17;;;20.40;99.90;;;;;;4953018;28;20471;-73
2022/09/07 11:25:24;;;;;;;3.50;3.30;;;20.50;99.90;;;;;;4953035;28;20476;-73
2022/09/07 11:27:55;;;;;;;4.00;3.80;;;20.60;99.90;;;;;;4953102;28;20489;-73
2022/09/07 11:30:24;;;;;;;3.53;3.33;;;20.60;99.90;;;;;;4956608;28;20482;-73
2022/09/07 11:33:00;;;;;;;3.40;3.17;;;20.80;99.90;;;;;;4960190;28;20962;-71
2022/09/07 11:35:36;;;;;;;4.80;4.30;;;20.80;99.90;;;;;;4971736;28;20465;-71
2022/09/07 11:38:11;;;;;;;3.90;3.70;;;20.90;99.90;;;;;;4972215;28;20468;-71
2022/09/07 11:40:49;;;;;;;3.57;3.47;;;21.10;99.90;;;;;;4972095;28;20484;-72
2022/09/07 11:43:20;;;;;;;3.70;3.60;;;21.20;99.90;;;;;;4971995;28;20554;-71
2022/09/07 11:45:52;;;;;;;3.20;3.00;;;21.20;99.90;;;;;;4963896;28;20493;-71
2022/09/07 11:48:24;;;;;;;3.93;3.77;;;21.30;99.90;;;;;;4963349;28;20579;-72
2022/09/07 11:50:54;;;;;;;3.40;3.20;;;21.40;99.90;;;;;;4952915;28;20576;-71
2022/09/07 11:53:23;;;;;;;4.00;3.73;;;21.50;99.90;;;;;;4954943;28;20477;-72
2022/09/07 11:55:59;;;;;;;4.90;4.50;;;21.60;99.90;;;;;;4956616;28;20469;-72
2022/09/07 11:58:48;;;;;;;3.47;3.30;;;21.60;99.90;;;;;;4961025;28;20469;-72
2022/09/07 12:01:25;;;;;;;4.90;4.60;;;21.60;99.90;;;;;;4963851;28;21099;-72
2022/09/07 12:04:23;;;;;;;4.00;3.80;;;21.70;99.90;;;;;;4959221;28;20473;-71
2022/09/07 12:07:22;;;;;;;3.73;3.53;;;21.80;99.90;;;;;;4964886;28;20578;-71
2022/09/07 12:10:09;;;;;;;4.27;3.97;;;21.90;99.90;;;;;;4971789;28;20465;-71
2022/09/07 12:12:58;;;;;;;2.90;2.80;;;22.00;99.90;;;;;;4969074;28;20485;-72
2022/09/07 12:15:32;;;;;;;3.80;3.57;;;22.00;99.90;;;;;;4952933;28;20462;-72
2022/09/07 12:18:16;;;;;;;4.30;4.10;;;22.10;99.90;;;;;;4953056;28;20562;-72
2022/09/07 12:20:44;;;;;;;2.97;2.87;;;22.10;99.90;;;;;;4953044;28;20569;-72
2022/09/07 12:23:33;;;;;;;4.00;3.57;;;22.20;99.90;;;;;;4952647;28;20729;-71
2022/09/07 12:26:37;;;;;;;3.93;3.83;;;22.30;99.90;;;;;;4954887;28;20466;-72
2022/09/07 12:29:19;;;;;;;4.10;3.90;;;22.40;99.90;;;;;;4960641;28;20465;-71
2022/09/07 12:31:47;;;;;;;4.13;3.93;;;22.40;99.90;;;;;;4960639;28;20486;-72
2022/09/07 12:34:46;;;;;;;4.60;4.30;;;22.30;99.90;;;;;;4965107;28;20966;-72
2022/09/07 12:37:41;;;;;;;3.80;3.60;;;22.30;99.90;;;;;;4955960;28;20522;-72
2022/09/07 12:40:56;;;;;;;3.73;3.53;;;22.20;99.90;;;;;;4953127;28;20492;-71
2022/09/07 12:43:34;;;;;;;4.23;3.97;;;22.30;99.90;;;;;;4969849;28;20576;-71
2022/09/07 12:46:02;;;;;;;3.90;3.70;;;22.40;99.90;;;;;;4975344;28;20496;-71
2022/09/07 12:48:42;;;;;;;3.97;3.77;;;22.40;99.90;;;;;;4974960;28;20492;-71
2022/09/07 12:51:15;;;;;;;4.33;4.13;;;22.30;99.90;;;;;;4974874;28;20521;-70
2022/09/07 12:53:51;;;;;;;4.27;4.00;;;22.40;99.90;;;;;;4974618;28;20473;-70
2022/09/07 12:56:31;;;;;;;3.23;3.13;;;22.50;99.90;;;;;;4974714;28;20474;-70
2022/09/07 12:59:14;;;;;;;3.67;3.57;;;22.60;99.90;;;;;;4963661;28;20466;-71
2022/09/07 13:01:51;;;;;;;4.20;4.00;;;22.70;99.90;;;;;;4956161;28;20495;-71
2022/09/07 13:04:49;;;;;;;4.80;4.50;;;22.80;99.90;;;;;;4955814;28;20473;-71
2022/09/07 13:07:50;;;;;;;3.90;3.80;;;22.80;99.90;;;;;;4950910;29;20582;-71
2022/09/07 13:10:27;;;;;;;4.20;4.00;;;22.90;99.90;;;;;;4956606;28;20533;-71
2022/09/07 13:13:01;;;;;;;4.03;3.93;;;23.00;99.90;;;;;;4963691;28;20481;-71
2022/09/07 13:15:43;;;;;;;4.80;4.60;;;23.00;99.90;;;;;;4967008;28;20810;-71
2022/09/07 13:18:27;;;;;;;4.27;4.07;;;23.10;99.90;;;;;;4975004;28;20481;-71
2022/09/07 13:21:30;;;;;;;4.73;4.53;;;23.10;99.90;;;;;;4974459;28;20567;-71
2022/09/07 13:24:42;;;;;;;4.50;4.30;;;23.10;99.90;;;;;;4974124;28;20978;-71
2022/09/07 13:27:41;;;;;;;4.30;4.03;;;23.10;99.90;;;;;;4985079;28;20563;-71
2022/09/07 13:30:24;;;;;;;4.30;4.20;;;23.20;99.90;;;;;;4987919;28;20454;-72
2022/09/07 13:33:11;;;;;;;7.53;5.10;;;23.20;99.90;;;;;;4984031;28;20482;-71
2022/09/07 13:35:45;;;;;;;5.53;4.20;;;23.30;99.90;;;;;;4992774;28;20458;-72
2022/09/07 13:38:15;;;;;;;3.83;3.53;;;23.40;99.90;;;;;;4992995;28;20467;-71
2022/09/07 13:40:46;;;;;;;4.83;4.53;;;23.40;99.90;;;;;;4993354;28;20478;-72
2022/09/07 13:43:18;;;;;;;5.73;5.47;;;23.40;99.90;;;;;;4991769;28;20474;-71
2022/09/07 13:45:58;;;;;;;6.00;5.60;;;23.40;99.90;;;;;;4980512;28;20475;-71
2022/09/07 13:48:32;;;;;;;5.47;5.07;;;23.40;99.90;;;;;;4989889;28;20493;-72
2022/09/07 13:51:06;;;;;;;4.90;4.60;;;23.40;99.90;;;;;;4984134;28;20488;-70
2022/09/07 13:53:45;;;;;;;4.50;4.40;;;23.30;99.90;;;;;;4974616;28;20888;-71
2022/09/07 13:56:18;;;;;;;4.67;4.47;;;23.20;99.90;;;;;;4974317;28;20915;-71
2022/09/07 13:58:49;;;;;;;4.30;4.10;;;23.30;99.90;;;;;;4974459;28;20456;-71
2022/09/07 14:01:19;;;;;;;5.23;4.93;;;23.30;99.90;;;;;;4965155;28;20503;-71
2022/09/07 14:03:49;;;;;;;4.70;4.40;;;23.30;99.90;;;;;;4962496;28;20541;-70
2022/09/07 14:06:28;;;;;;;4.80;4.60;;;23.30;99.90;;;;;;4971245;28;20758;-70
2022/09/07 14:08:56;;;;;;;4.73;4.53;;;23.20;99.90;;;;;;4974268;28;20825;-70
2022/09/07 14:11:25;;;;;;;5.00;4.63;;;23.20;99.90;;;;;;4973423;28;20494;-71
2022/09/07 14:14:18;;;;;;;4.37;4.27;;;23.10;99.90;;;;;;4973303;28;20466;-70
2022/09/07 14:16:48;;;;;;;4.60;4.30;;;23.10;99.90;;;;;;4952453;28;20483;-71
2022/09/07 14:19:22;;;;;;;6.67;6.20;;;23.30;99.90;;;;;;4962994;28;20477;-74
2022/09/07 14:21:58;;;;;;;5.40;5.00;;;23.30;99.90;;;;;;4954432;28;20849;-73
2022/09/07 14:24:35;;;;;;;4.40;4.20;;;23.30;99.90;;;;;;4953351;28;20459;-71
2022/09/07 14:27:03;;;;;;;5.03;4.83;;;23.20;99.90;;;;;;4956214;28;20467;-72
2022/09/07 14:29:32;;;;;;;4.70;4.50;;;23.10;99.90;;;;;;4956235;28;20473;-71
2022/09/07 14:32:01;;;;;;;5.27;4.97;;;23.00;99.90;;;;;;4956861;28;20494;-70
2022/09/07 14:34:32;;;;;;;4.13;4.03;;;22.90;99.90;;;;;;4963420;28;20466;-71
2022/09/07 14:37:05;;;;;;;4.70;4.40;;;22.80;99.90;;;;;;4963951;28;20477;-71
2022/09/07 14:39:37;;;;;;;5.00;4.60;;;22.80;99.90;;;;;;4954832;28;20470;-70
2022/09/07 14:42:05;;;;;;;5.77;5.37;;;22.90;99.90;;;;;;4954289;28;20885;-70
2022/09/07 14:44:36;;;;;;;4.23;4.03;;;22.80;99.90;;;;;;4954098;28;20494;-70
2022/09/07 14:47:07;;;;;;;4.17;3.87;;;22.80;99.90;;;;;;4953851;28;20838;-71
2022/09/07 14:49:34;;;;;;;5.20;4.80;;;22.80;99.90;;;;;;4957498;28;20473;-70
2022/09/07 14:52:03;;;;;;;4.80;4.60;;;22.80;99.90;;;;;;4967382;28;20478;-71
2022/09/07 14:54:32;;;;;;;4.63;4.40;;;22.80;99.90;;;;;;4954021;28;20480;-71
2022/09/07 14:57:03;;;;;;;4.87;4.63;;;22.80;99.90;;;;;;4953587;28;20470;-70
2022/09/07 14:59:41;;;;;;;4.93;4.67;;;22.80;99.90;;;;;;4954360;28;20467;-71
2022/09/07 15:02:22;;;;;;;5.17;4.67;;;22.80;99.90;;;;;;4954002;28;20498;-71
2022/09/07 15:05:05;;;;;;;5.07;4.87;;;22.80;99.90;;;;;;4958588;28;20484;-72
2022/09/07 15:07:38;;;;;;;5.30;5.00;;;22.90;99.90;;;;;;4957327;28;20490;-72
2022/09/07 15:10:28;;;;;;;5.57;5.30;;;22.80;99.90;;;;;;4975145;28;20554;-72
2022/09/07 15:12:56;;;;;;;5.93;5.50;;;22.80;99.90;;;;;;4969365;28;20458;-71
2022/09/07 15:15:25;;;;;;;4.57;4.37;;;22.80;99.90;;;;;;4962408;28;20473;-72
2022/09/07 15:17:53;;;;;;;4.87;4.57;;;22.80;99.90;;;;;;4958727;28;20467;-71
2022/09/07 15:20:38;;;;;;;6.50;4.50;;;22.80;99.90;;;;;;4960102;28;20471;-70
2022/09/07 15:23:10;;;;;;;5.87;5.37;;;22.90;99.90;;;;;;4955800;28;20944;-71
2022/09/07 15:25:37;;;;;;;4.60;4.30;;;22.80;99.90;;;;;;4964035;28;20475;-70
2022/09/07 15:28:05;;;;;;;5.20;4.70;;;22.90;99.90;;;;;;4969723;28;20518;-70
2022/09/07 15:30:32;;;;;;;4.87;4.60;;;22.90;99.90;;;;;;4973697;28;20468;-71
2022/09/07 15:32:58;;;;;;;4.33;4.13;;;22.90;99.90;;;;;;4959310;28;20916;-70
2022/09/07 15:35:25;;;;;;;5.40;5.07;;;22.90;99.90;;;;;;4955568;28;20478;-71
2022/09/07 15:37:52;;;;;;;4.97;4.77;;;22.80;99.90;;;;;;4955464;28;20478;-71
2022/09/07 15:40:22;;;;;;;5.10;4.90;;;22.80;99.90;;;;;;4954868;28;20502;-70
2022/09/07 15:42:49;;;;;;;5.00;4.67;;;22.80;99.90;;;;;;4958823;28;20906;-70
2022/09/07 15:45:16;;;;;;;4.47;4.27;;;22.80;99.90;;;;;;4969211;28;21141;-71
2022/09/07 15:47:43;;;;;;;5.83;4.70;;;22.80;99.90;;;;;;4972006;28;20466;-71
2022/09/07 15:50:11;;;;;;;4.30;4.00;;;22.80;99.90;;;;;;4972203;28;20476;-70
2022/09/07 15:52:37;;;;;;;4.17;4.00;;;22.80;99.90;;;;;;4971497;28;20485;-71
2022/09/07 15:55:07;;;;;;;4.30;4.10;;;22.90;99.90;;;;;;4971753;28;20465;-70
2022/09/07 15:57:35;;;;;;;4.40;4.30;;;22.90;99.90;;;;;;4969567;28;20943;-71
2022/09/07 16:00:04;;;;;;;4.23;4.03;;;22.90;99.90;;;;;;4960708;28;20464;-70
2022/09/07 16:02:31;;;;;;;4.00;3.80;;;22.90;99.90;;;;;;4952751;28;20915;-70
2022/09/07 16:04:58;;;;;;;4.90;4.67;;;22.80;99.90;;;;;;4952901;28;20991;-70
2022/09/07 16:07:25;;;;;;;5.10;4.70;;;22.80;99.90;;;;;;4954815;28;20478;-71
2022/09/07 16:09:52;;;;;;;5.60;5.30;;;22.80;99.90;;;;;;4956205;28;20531;-70
2022/09/07 16:12:19;;;;;;;5.23;4.93;;;22.70;99.90;;;;;;4956612;28;20874;-71
2022/09/07 16:14:47;;;;;;;3.80;3.70;;;22.70;99.90;;;;;;4964142;28;20809;-70
2022/09/07 16:17:14;;;;;;;4.93;4.67;;;22.60;99.90;;;;;;4975261;28;20559;-70
2022/09/07 16:19:41;;;;;;;5.53;5.13;;;22.60;99.90;;;;;;4974711;28;20489;-70
2022/09/07 16:22:08;;;;;;;5.20;4.90;;;22.70;99.90;;;;;;4982373;28;21005;-71
2022/09/07 16:24:35;;;;;;;5.13;4.83;;;22.70;99.90;;;;;;4976057;28;20465;-70
2022/09/07 16:27:01;;;;;;;4.57;4.37;;;22.60;99.90;;;;;;4980270;28;20476;-70
2022/09/07 16:29:28;;;;;;;5.30;5.00;;;22.60;99.90;;;;;;4988132;28;20524;-71
2022/09/07 16:31:56;;;;;;;4.23;4.03;;;22.60;99.90;;;;;;4996046;23;21254;-72
2022/09/07 16:34:23;;;;;;;4.90;4.70;;;22.60;99.90;;;;;;4976792;28;20476;-71
2022/09/07 16:36:50;;;;;;;4.93;4.60;;;22.60;99.90;;;;;;4963397;28;20478;-71
2022/09/07 16:39:18;;;;;;;5.63;5.30;;;22.60;99.90;;;;;;4955812;28;20501;-72
2022/09/07 16:41:44;;;;;;;4.17;4.00;;;22.50;99.90;;;;;;4948808;28;20527;-71
2022/09/07 16:44:11;;;;;;;4.80;4.50;;;22.50;99.90;;;;;;4947269;29;20483;-71
2022/09/07 16:46:38;;;;;;;5.20;4.90;;;22.50;99.90;;;;;;4949251;29;20459;-74
2022/09/07 16:49:07;;;;;;;5.60;5.30;;;22.40;99.90;;;;;;4955957;29;20497;-70
2022/09/07 16:51:34;;;;;;;4.50;4.30;;;22.40;99.90;;;;;;4955598;28;20919;-71
2022/09/07 16:54:01;;;;;;;5.63;5.10;;;22.30;99.90;;;;;;4949113;29;20467;-69
2022/09/07 16:56:29;;;;;;;4.30;4.07;;;22.30;99.90;;;;;;4940636;29;20843;-72
2022/09/07 16:58:57;;;;;;;3.80;3.60;;;22.20;99.90;;;;;;4950081;29;20489;-72
2022/09/07 17:01:26;;;;;;;6.10;4.50;;;22.20;99.90;;;;;;4936539;29;20490;-71
2022/09/07 17:03:53;;;;;;;4.60;4.40;;;22.10;99.90;;;;;;4937145;29;20502;-71
2022/09/07 17:06:23;;;;;;;3.93;3.80;;;22.00;99.90;;;;;;4936738;29;20963;-72
2022/09/07 17:08:50;;;;;;;4.50;4.30;;;22.00;99.90;;;;;;4936327;29;20870;-71
2022/09/07 17:11:19;;;;;;;3.50;3.30;;;21.90;99.90;;;;;;4947664;29;20584;-71